sensor_id;sensor_type;location;lat;lon;timestamp;temperature;humidity
22765;DHT22;11549;50.852;3.816;2022-09-17T00:01:28;11.90;99.90
22765;DHT22;11549;50.852;3.816;2022-09-17T00:03:59;12.00;99.90
22765;DHT22;11549;50.852;3.816;2022-09-17T00:06:33;12.10;99.90
22765;DHT22;11549;50.852;3.816;2022-09-17T00:09:03;12.20;99.90
22765;DHT22;11549;50.852;3.816;2022-09-17T00:11:34;12.20;99.90
22765;DHT22;11549;50.852;3.816;2022-09-17T00:14:03;12.20;99.90
22765;DHT22;11549;50.852;3.816;2022-09-17T00:16:35;12.20;99.90
22765;DHT22;11549;50.852;3.816;2022-09-17T00:19:04;12.20;99.90
22765;DHT22;11549;50.852;3.816;2022-09-17T00:21:34;12.20;99.90
22765;DHT22;11549;50.852;3.816;2022-09-17T00:24:05;12.20;99.90
22765;DHT22;11549;50.852;3.816;2022-09-17T00:26:34;12.10;99.90
22765;DHT22;11549;50.852;3.816;2022-09-17T00:29:04;12.10;99.90
22765;DHT22;11549;50.852;3.816;2022-09-17T00:31:33;12.00;99.90
22765;DHT22;11549;50.852;3.816;2022-09-17T00:34:03;12.00;99.90
22765;DHT22;11549;50.852;3.816;2022-09-17T00:36:34;11.90;99.90
22765;DHT22;11549;50.852;3.816;2022-09-17T00:39:06;12.00;99.90
22765;DHT22;11549;50.852;3.816;2022-09-17T00:41:35;12.00;99.90
22765;DHT22;11549;50.852;3.816;2022-09-17T00:44:41;12.00;99.90
22765;DHT22;11549;50.852;3.816;2022-09-17T00:47:18;12.00;99.90
22765;DHT22;11549;50.852;3.816;2022-09-17T00:49:48;12.00;99.90
22765;DHT22;11549;50.852;3.816;2022-09-17T00:52:19;12.10;99.90
22765;DHT22;11549;50.852;3.816;2022-09-17T00:54:53;12.10;99.90
22765;DHT22;11549;50.852;3.816;2022-09-17T00:57:24;12.10;99.90
22765;DHT22;11549;50.852;3.816;2022-09-17T00:59:53;11.90;99.90
22765;DHT22;11549;50.852;3.816;2022-09-17T01:02:22;11.90;99.90
22765;DHT22;11549;50.852;3.816;2022-09-17T01:04:51;11.90;99.90
22765;DHT22;11549;50.852;3.816;2022-09-17T01:07:30;12.00;99.90
22765;DHT22;11549;50.852;3.816;2022-09-17T01:10:18;12.00;99.90
22765;DHT22;11549;50.852;3.816;2022-09-17T01:13:03;12.00;99.90
22765;DHT22;11549;50.852;3.816;2022-09-17T01:15:38;12.10;99.90
22765;DHT22;11549;50.852;3.816;2022-09-17T01:18:18;12.20;99.90
22765;DHT22;11549;50.852;3.816;2022-09-17T01:30:18;12.00;99.90
22765;DHT22;11549;50.852;3.816;2022-09-17T01:32:54;12.10;99.90
22765;DHT22;11549;50.852;3.816;2022-09-17T01:35:31;12.10;99.90
22765;DHT22;11549;50.852;3.816;2022-09-17T01:38:06;11.90;99.90
22765;DHT22;11549;50.852;3.816;2022-09-17T01:40:40;11.90;99.90
22765;DHT22;11549;50.852;3.816;2022-09-17T01:43:15;11.80;99.90
22765;DHT22;11549;50.852;3.816;2022-09-17T01:45:50;11.80;99.90
22765;DHT22;11549;50.852;3.816;2022-09-17T01:48:22;11.80;99.90
22765;DHT22;11549;50.852;3.816;2022-09-17T01:50:56;11.80;99.90
22765;DHT22;11549;50.852;3.816;2022-09-17T01:53:30;11.90;99.90
22765;DHT22;11549;50.852;3.816;2022-09-17T01:56:01;11.90;99.90
22765;DHT22;11549;50.852;3.816;2022-09-17T01:58:34;11.90;99.90
22765;DHT22;11549;50.852;3.816;2022-09-17T02:01:06;11.90;99.90
22765;DHT22;11549;50.852;3.816;2022-09-17T02:03:41;12.00;99.90
22765;DHT22;11549;50.852;3.816;2022-09-17T02:06:13;12.00;99.90
22765;DHT22;11549;50.852;3.816;2022-09-17T02:08:47;12.00;99.90
22765;DHT22;11549;50.852;3.816;2022-09-17T02:11:16;12.20;99.90
22765;DHT22;11549;50.852;3.816;2022-09-17T02:13:49;12.10;99.90
22765;DHT22;11549;50.852;3.816;2022-09-17T02:16:22;12.20;99.90
22765;DHT22;11549;50.852;3.816;2022-09-17T02:19:01;12.20;99.90
22765;DHT22;11549;50.852;3.816;2022-09-17T02:21:38;12.20;99.90
22765;DHT22;11549;50.852;3.816;2022-09-17T02:24:13;12.20;99.90
22765;DHT22;11549;50.852;3.816;2022-09-17T02:26:49;12.20;99.90
22765;DHT22;11549;50.852;3.816;2022-09-17T02:29:23;12.20;99.90
22765;DHT22;11549;50.852;3.816;2022-09-17T02:31:53;12.10;99.90
22765;DHT22;11549;50.852;3.816;2022-09-17T02:34:24;12.10;99.90
22765;DHT22;11549;50.852;3.816;2022-09-17T02:36:53;12.20;99.90
22765;DHT22;11549;50.852;3.816;2022-09-17T02:39:21;12.40;99.90
22765;DHT22;11549;50.852;3.816;2022-09-17T02:41:55;12.40;99.90
22765;DHT22;11549;50.852;3.816;2022-09-17T02:44:30;12.30;99.90
22765;DHT22;11549;50.852;3.816;2022-09-17T02:47:23;12.40;99.90
22765;DHT22;11549;50.852;3.816;2022-09-17T02:50:11;12.30;99.90
22765;DHT22;11549;50.852;3.816;2022-09-17T02:52:52;12.30;99.90
22765;DHT22;11549;50.852;3.816;2022-09-17T02:55:30;12.40;99.90
22765;DHT22;11549;50.852;3.816;2022-09-17T02:58:06;12.40;99.90
22765;DHT22;11549;50.852;3.816;2022-09-17T03:00:38;12.30;99.90
22765;DHT22;11549;50.852;3.816;2022-09-17T03:03:10;12.40;99.90
22765;DHT22;11549;50.852;3.816;2022-09-17T03:05:42;12.30;99.90
22765;DHT22;11549;50.852;3.816;2022-09-17T03:08:12;12.20;99.90
22765;DHT22;11549;50.852;3.816;2022-09-17T03:10:41;12.20;99.90
22765;DHT22;11549;50.852;3.816;2022-09-17T03:13:09;12.20;99.90
22765;DHT22;11549;50.852;3.816;2022-09-17T03:15:38;12.20;99.90
22765;DHT22;11549;50.852;3.816;2022-09-17T03:18:06;12.10;99.90
22765;DHT22;11549;50.852;3.816;2022-09-17T03:20:34;12.10;99.90
22765;DHT22;11549;50.852;3.816;2022-09-17T03:23:04;12.30;99.90
22765;DHT22;11549;50.852;3.816;2022-09-17T03:25:32;12.40;99.90
22765;DHT22;11549;50.852;3.816;2022-09-17T03:28:01;12.30;99.90
22765;DHT22;11549;50.852;3.816;2022-09-17T03:30:30;12.20;99.90
22765;DHT22;11549;50.852;3.816;2022-09-17T03:32:58;12.20;99.90
22765;DHT22;11549;50.852;3.816;2022-09-17T03:35:26;12.20;99.90
22765;DHT22;11549;50.852;3.816;2022-09-17T03:37:55;12.10;99.90
22765;DHT22;11549;50.852;3.816;2022-09-17T03:40:24;12.10;99.90
22765;DHT22;11549;50.852;3.816;2022-09-17T03:42:52;12.20;99.90
22765;DHT22;11549;50.852;3.816;2022-09-17T03:45:21;12.10;99.90
22765;DHT22;11549;50.852;3.816;2022-09-17T03:47:49;12.10;99.90
22765;DHT22;11549;50.852;3.816;2022-09-17T03:50:17;12.10;99.90
22765;DHT22;11549;50.852;3.816;2022-09-17T03:52:46;12.10;99.90
22765;DHT22;11549;50.852;3.816;2022-09-17T03:55:16;12.10;99.90
22765;DHT22;11549;50.852;3.816;2022-09-17T03:57:46;12.10;99.90
22765;DHT22;11549;50.852;3.816;2022-09-17T04:00:15;12.10;99.90
22765;DHT22;11549;50.852;3.816;2022-09-17T04:02:43;12.10;99.90
22765;DHT22;11549;50.852;3.816;2022-09-17T04:05:12;12.20;99.90
22765;DHT22;11549;50.852;3.816;2022-09-17T04:07:40;12.30;99.90
22765;DHT22;11549;50.852;3.816;2022-09-17T04:10:08;12.30;99.90
22765;DHT22;11549;50.852;3.816;2022-09-17T04:12:37;12.30;99.90
22765;DHT22;11549;50.852;3.816;2022-09-17T04:15:08;12.40;99.90
22765;DHT22;11549;50.852;3.816;2022-09-17T04:17:36;12.30;99.90
22765;DHT22;11549;50.852;3.816;2022-09-17T04:20:05;12.30;99.90
22765;DHT22;11549;50.852;3.816;2022-09-17T04:22:34;12.30;99.90
22765;DHT22;11549;50.852;3.816;2022-09-17T04:25:02;12.30;99.90
22765;DHT22;11549;50.852;3.816;2022-09-17T04:27:30;12.30;99.90
22765;DHT22;11549;50.852;3.816;2022-09-17T04:29:58;12.30;99.90
22765;DHT22;11549;50.852;3.816;2022-09-17T04:32:28;12.20;99.90
22765;DHT22;11549;50.852;3.816;2022-09-17T04:34:57;12.20;99.90
22765;DHT22;11549;50.852;3.816;2022-09-17T04:37:25;12.30;99.90
22765;DHT22;11549;50.852;3.816;2022-09-17T04:39:56;12.30;99.90
22765;DHT22;11549;50.852;3.816;2022-09-17T04:42:24;12.30;99.90
22765;DHT22;11549;50.852;3.816;2022-09-17T04:44:53;12.20;99.90
22765;DHT22;11549;50.852;3.816;2022-09-17T04:47:21;12.20;99.90
22765;DHT22;11549;50.852;3.816;2022-09-17T04:49:51;12.20;99.90
22765;DHT22;11549;50.852;3.816;2022-09-17T04:52:20;12.20;99.90
22765;DHT22;11549;50.852;3.816;2022-09-17T04:54:48;12.30;99.90
22765;DHT22;11549;50.852;3.816;2022-09-17T04:57:16;12.40;99.90
22765;DHT22;11549;50.852;3.816;2022-09-17T04:59:44;12.40;99.90
22765;DHT22;11549;50.852;3.816;2022-09-17T05:02:13;12.30;99.90
22765;DHT22;11549;50.852;3.816;2022-09-17T05:04:41;12.30;99.90
22765;DHT22;11549;50.852;3.816;2022-09-17T05:07:11;12.30;99.90
22765;DHT22;11549;50.852;3.816;2022-09-17T05:09:39;12.30;99.90
22765;DHT22;11549;50.852;3.816;2022-09-17T05:12:08;12.20;99.90
22765;DHT22;11549;50.852;3.816;2022-09-17T05:14:37;12.10;99.90
22765;DHT22;11549;50.852;3.816;2022-09-17T05:17:05;12.20;99.90
22765;DHT22;11549;50.852;3.816;2022-09-17T05:19:33;12.30;99.90
22765;DHT22;11549;50.852;3.816;2022-09-17T05:22:02;12.40;99.90
22765;DHT22;11549;50.852;3.816;2022-09-17T05:24:31;12.40;99.90
22765;DHT22;11549;50.852;3.816;2022-09-17T05:27:03;12.40;99.90
22765;DHT22;11549;50.852;3.816;2022-09-17T05:29:31;12.50;99.90
22765;DHT22;11549;50.852;3.816;2022-09-17T05:32:00;12.50;99.90
22765;DHT22;11549;50.852;3.816;2022-09-17T05:34:28;12.40;99.90
22765;DHT22;11549;50.852;3.816;2022-09-17T05:36:56;12.40;99.90
22765;DHT22;11549;50.852;3.816;2022-09-17T05:39:24;12.40;99.90
22765;DHT22;11549;50.852;3.816;2022-09-17T05:41:54;12.40;99.90
22765;DHT22;11549;50.852;3.816;2022-09-17T05:44:23;12.30;99.90
22765;DHT22;11549;50.852;3.816;2022-09-17T05:46:52;12.30;99.90
22765;DHT22;11549;50.852;3.816;2022-09-17T05:49:20;12.30;99.90
22765;DHT22;11549;50.852;3.816;2022-09-17T05:51:49;12.30;99.90
22765;DHT22;11549;50.852;3.816;2022-09-17T05:54:17;12.20;99.90
22765;DHT22;11549;50.852;3.816;2022-09-17T05:56:45;12.20;99.90
22765;DHT22;11549;50.852;3.816;2022-09-17T05:59:15;12.20;99.90
22765;DHT22;11549;50.852;3.816;2022-09-17T06:01:44;12.30;99.90
22765;DHT22;11549;50.852;3.816;2022-09-17T06:04:13;12.60;99.90
22765;DHT22;11549;50.852;3.816;2022-09-17T06:06:41;12.80;99.90
22765;DHT22;11549;50.852;3.816;2022-09-17T06:09:10;12.90;99.90
22765;DHT22;11549;50.852;3.816;2022-09-17T06:11:38;12.80;99.90
22765;DHT22;11549;50.852;3.816;2022-09-17T06:14:07;12.90;99.90
22765;DHT22;11549;50.852;3.816;2022-09-17T06:16:37;12.90;99.90
22765;DHT22;11549;50.852;3.816;2022-09-17T06:19:06;13.00;99.90
22765;DHT22;11549;50.852;3.816;2022-09-17T06:21:34;12.90;99.90
22765;DHT22;11549;50.852;3.816;2022-09-17T06:24:02;12.90;99.90
22765;DHT22;11549;50.852;3.816;2022-09-17T06:26:30;12.90;99.90
22765;DHT22;11549;50.852;3.816;2022-09-17T06:28:59;12.80;99.90
22765;DHT22;11549;50.852;3.816;2022-09-17T06:31:27;12.90;99.90
22765;DHT22;11549;50.852;3.816;2022-09-17T06:33:58;12.80;99.90
22765;DHT22;11549;50.852;3.816;2022-09-17T06:36:27;12.70;99.90
22765;DHT22;11549;50.852;3.816;2022-09-17T06:38:56;12.70;99.90
22765;DHT22;11549;50.852;3.816;2022-09-17T06:41:24;12.90;99.90
22765;DHT22;11549;50.852;3.816;2022-09-17T06:43:53;13.30;99.90
22765;DHT22;11549;50.852;3.816;2022-09-17T06:46:21;13.90;99.90
22765;DHT22;11549;50.852;3.816;2022-09-17T06:48:49;14.50;99.90
22765;DHT22;11549;50.852;3.816;2022-09-17T06:51:19;14.90;99.90
22765;DHT22;11549;50.852;3.816;2022-09-17T06:53:48;15.10;99.90
22765;DHT22;11549;50.852;3.816;2022-09-17T06:56:16;15.00;99.90
22765;DHT22;11549;50.852;3.816;2022-09-17T06:58:45;14.80;99.90
22765;DHT22;11549;50.852;3.816;2022-09-17T07:01:13;14.60;99.90
22765;DHT22;11549;50.852;3.816;2022-09-17T07:03:42;14.40;99.90
22765;DHT22;11549;50.852;3.816;2022-09-17T07:06:11;14.20;99.90
22765;DHT22;11549;50.852;3.816;2022-09-17T07:08:40;14.00;99.90
22765;DHT22;11549;50.852;3.816;2022-09-17T07:11:10;13.60;99.90
22765;DHT22;11549;50.852;3.816;2022-09-17T07:13:38;13.30;99.90
22765;DHT22;11549;50.852;3.816;2022-09-17T07:16:07;13.10;99.90
22765;DHT22;11549;50.852;3.816;2022-09-17T07:18:36;12.90;99.90
22765;DHT22;11549;50.852;3.816;2022-09-17T07:21:08;12.80;99.90
22765;DHT22;11549;50.852;3.816;2022-09-17T07:23:36;12.70;99.90
22765;DHT22;11549;50.852;3.816;2022-09-17T07:26:09;12.70;99.90
22765;DHT22;11549;50.852;3.816;2022-09-17T07:28:39;12.70;99.90
22765;DHT22;11549;50.852;3.816;2022-09-17T07:31:10;12.80;99.90
22765;DHT22;11549;50.852;3.816;2022-09-17T07:33:42;12.80;99.90
22765;DHT22;11549;50.852;3.816;2022-09-17T07:36:12;13.10;99.90
22765;DHT22;11549;50.852;3.816;2022-09-17T07:38:44;13.20;99.90
22765;DHT22;11549;50.852;3.816;2022-09-17T07:41:15;13.40;99.90
22765;DHT22;11549;50.852;3.816;2022-09-17T07:43:44;13.40;99.90
22765;DHT22;11549;50.852;3.816;2022-09-17T07:46:14;13.50;99.90
22765;DHT22;11549;50.852;3.816;2022-09-17T07:48:43;13.80;99.90
22765;DHT22;11549;50.852;3.816;2022-09-17T07:51:14;14.00;99.90
22765;DHT22;11549;50.852;3.816;2022-09-17T07:53:43;14.30;99.90
22765;DHT22;11549;50.852;3.816;2022-09-17T07:56:14;14.30;99.90
22765;DHT22;11549;50.852;3.816;2022-09-17T07:58:42;14.30;99.90
22765;DHT22;11549;50.852;3.816;2022-09-17T08:01:12;14.10;99.90
22765;DHT22;11549;50.852;3.816;2022-09-17T08:03:41;14.10;99.90
22765;DHT22;11549;50.852;3.816;2022-09-17T08:06:12;14.20;99.90
22765;DHT22;11549;50.852;3.816;2022-09-17T08:08:41;14.00;99.90
22765;DHT22;11549;50.852;3.816;2022-09-17T08:11:10;13.90;99.90
22765;DHT22;11549;50.852;3.816;2022-09-17T08:13:41;13.90;99.90
22765;DHT22;11549;50.852;3.816;2022-09-17T08:16:11;14.10;99.90
22765;DHT22;11549;50.852;3.816;2022-09-17T08:18:41;14.40;99.90
22765;DHT22;11549;50.852;3.816;2022-09-17T08:21:12;14.70;99.90
22765;DHT22;11549;50.852;3.816;2022-09-17T08:23:41;15.30;99.90
22765;DHT22;11549;50.852;3.816;2022-09-17T08:26:12;15.80;99.90
22765;DHT22;11549;50.852;3.816;2022-09-17T08:28:45;16.10;99.90
22765;DHT22;11549;50.852;3.816;2022-09-17T08:31:15;16.10;99.90
22765;DHT22;11549;50.852;3.816;2022-09-17T08:33:45;16.40;99.90
22765;DHT22;11549;50.852;3.816;2022-09-17T08:36:15;16.80;99.90
22765;DHT22;11549;50.852;3.816;2022-09-17T08:38:44;16.80;99.90
22765;DHT22;11549;50.852;3.816;2022-09-17T08:41:22;16.60;99.90
22765;DHT22;11549;50.852;3.816;2022-09-17T08:44:06;16.40;99.90
22765;DHT22;11549;50.852;3.816;2022-09-17T08:46:42;16.30;99.90
22765;DHT22;11549;50.852;3.816;2022-09-17T08:49:15;16.20;99.90
22765;DHT22;11549;50.852;3.816;2022-09-17T08:51:58;16.10;99.90
22765;DHT22;11549;50.852;3.816;2022-09-17T08:54:32;16.00;99.90
22765;DHT22;11549;50.852;3.816;2022-09-17T08:57:10;15.90;99.90
22765;DHT22;11549;50.852;3.816;2022-09-17T08:59:48;15.70;99.90
22765;DHT22;11549;50.852;3.816;2022-09-17T09:02:33;15.70;99.90
22765;DHT22;11549;50.852;3.816;2022-09-17T09:05:10;15.80;99.90
22765;DHT22;11549;50.852;3.816;2022-09-17T09:07:46;16.20;99.90
22765;DHT22;11549;50.852;3.816;2022-09-17T09:10:18;16.60;99.90
22765;DHT22;11549;50.852;3.816;2022-09-17T09:12:50;16.80;99.90
22765;DHT22;11549;50.852;3.816;2022-09-17T09:15:30;16.90;99.90
22765;DHT22;11549;50.852;3.816;2022-09-17T09:18:04;17.00;99.90
22765;DHT22;11549;50.852;3.816;2022-09-17T09:20:44;17.20;99.90
22765;DHT22;11549;50.852;3.816;2022-09-17T09:23:18;17.30;99.90
22765;DHT22;11549;50.852;3.816;2022-09-17T09:26:07;17.50;99.90
22765;DHT22;11549;50.852;3.816;2022-09-17T09:28:54;17.80;99.90
22765;DHT22;11549;50.852;3.816;2022-09-17T09:31:43;17.60;99.90
22765;DHT22;11549;50.852;3.816;2022-09-17T09:34:15;17.30;99.90
22765;DHT22;11549;50.852;3.816;2022-09-17T09:36:44;16.80;99.90
22765;DHT22;11549;50.852;3.816;2022-09-17T09:39:16;16.50;99.90
22765;DHT22;11549;50.852;3.816;2022-09-17T09:41:51;16.00;99.90
22765;DHT22;11549;50.852;3.816;2022-09-17T09:44:23;15.30;99.90
22765;DHT22;11549;50.852;3.816;2022-09-17T09:47:21;14.90;99.90
22765;DHT22;11549;50.852;3.816;2022-09-17T09:50:14;14.60;99.90
22765;DHT22;11549;50.852;3.816;2022-09-17T09:52:56;14.50;99.90
22765;DHT22;11549;50.852;3.816;2022-09-17T09:55:39;14.30;99.90
22765;DHT22;11549;50.852;3.816;2022-09-17T09:58:19;14.40;99.90
22765;DHT22;11549;50.852;3.816;2022-09-17T10:00:50;14.50;99.90
22765;DHT22;11549;50.852;3.816;2022-09-17T10:03:22;14.70;99.90
22765;DHT22;11549;50.852;3.816;2022-09-17T10:05:53;14.80;99.90
22765;DHT22;11549;50.852;3.816;2022-09-17T10:08:21;14.80;99.90
22765;DHT22;11549;50.852;3.816;2022-09-17T10:10:55;14.80;99.90
22765;DHT22;11549;50.852;3.816;2022-09-17T10:13:25;15.20;99.90
22765;DHT22;11549;50.852;3.816;2022-09-17T10:15:54;15.70;99.90
22765;DHT22;11549;50.852;3.816;2022-09-17T10:18:24;16.30;99.90
22765;DHT22;11549;50.852;3.816;2022-09-17T10:20:55;16.50;99.90
22765;DHT22;11549;50.852;3.816;2022-09-17T10:23:26;16.80;99.90
22765;DHT22;11549;50.852;3.816;2022-09-17T10:25:55;16.80;99.90
22765;DHT22;11549;50.852;3.816;2022-09-17T10:28:42;16.60;99.90
22765;DHT22;11549;50.852;3.816;2022-09-17T10:31:12;16.30;99.90
22765;DHT22;11549;50.852;3.816;2022-09-17T10:33:52;16.20;99.90
22765;DHT22;11549;50.852;3.816;2022-09-17T10:36:37;16.20;99.90
22765;DHT22;11549;50.852;3.816;2022-09-17T10:39:22;16.00;99.90
22765;DHT22;11549;50.852;3.816;2022-09-17T10:41:55;15.90;99.90
22765;DHT22;11549;50.852;3.816;2022-09-17T10:44:24;16.30;99.90
22765;DHT22;11549;50.852;3.816;2022-09-17T10:46:53;16.40;99.90
22765;DHT22;11549;50.852;3.816;2022-09-17T10:49:34;16.50;99.90
22765;DHT22;11549;50.852;3.816;2022-09-17T10:52:05;16.40;99.90
22765;DHT22;11549;50.852;3.816;2022-09-17T10:55:04;16.40;99.90
22765;DHT22;11549;50.852;3.816;2022-09-17T10:58:01;16.40;99.90
22765;DHT22;11549;50.852;3.816;2022-09-17T11:00:49;16.40;99.90
22765;DHT22;11549;50.852;3.816;2022-09-17T11:03:46;16.70;99.90
22765;DHT22;11549;50.852;3.816;2022-09-17T11:06:33;17.40;99.90
22765;DHT22;11549;50.852;3.816;2022-09-17T11:09:15;17.80;99.90
22765;DHT22;11549;50.852;3.816;2022-09-17T11:11:54;18.40;99.90
22765;DHT22;11549;50.852;3.816;2022-09-17T11:14:41;18.60;99.90
22765;DHT22;11549;50.852;3.816;2022-09-17T11:20:28;16.40;99.90
22765;DHT22;11549;50.852;3.816;2022-09-17T11:23:14;15.50;99.90
22765;DHT22;11549;50.852;3.816;2022-09-17T11:25:53;15.00;99.90
22765;DHT22;11549;50.852;3.816;2022-09-17T11:28:38;14.70;99.90
22765;DHT22;11549;50.852;3.816;2022-09-17T11:31:20;14.70;99.90
22765;DHT22;11549;50.852;3.816;2022-09-17T11:34:09;14.60;99.90
22765;DHT22;11549;50.852;3.816;2022-09-17T11:36:47;14.70;99.90
22765;DHT22;11549;50.852;3.816;2022-09-17T11:39:21;15.00;99.90
22765;DHT22;11549;50.852;3.816;2022-09-17T11:41:53;15.50;99.90
22765;DHT22;11549;50.852;3.816;2022-09-17T11:44:26;16.00;99.90
22765;DHT22;11549;50.852;3.816;2022-09-17T11:46:58;16.60;99.90
22765;DHT22;11549;50.852;3.816;2022-09-17T11:49:34;17.00;99.90
22765;DHT22;11549;50.852;3.816;2022-09-17T11:52:08;17.50;99.90
22765;DHT22;11549;50.852;3.816;2022-09-17T11:54:44;17.80;99.90
22765;DHT22;11549;50.852;3.816;2022-09-17T11:57:15;18.20;99.90
22765;DHT22;11549;50.852;3.816;2022-09-17T11:59:49;18.40;99.90
22765;DHT22;11549;50.852;3.816;2022-09-17T12:02:22;18.50;99.90
22765;DHT22;11549;50.852;3.816;2022-09-17T12:04:56;17.10;99.90
22765;DHT22;11549;50.852;3.816;2022-09-17T12:07:35;16.30;99.90
22765;DHT22;11549;50.852;3.816;2022-09-17T12:10:38;15.80;99.90
22765;DHT22;11549;50.852;3.816;2022-09-17T12:13:25;15.40;99.90
22765;DHT22;11549;50.852;3.816;2022-09-17T12:16:10;15.10;99.90
22765;DHT22;11549;50.852;3.816;2022-09-17T12:18:47;14.80;99.90
22765;DHT22;11549;50.852;3.816;2022-09-17T12:21:20;14.80;99.90
22765;DHT22;11549;50.852;3.816;2022-09-17T12:23:51;15.20;99.90
22765;DHT22;11549;50.852;3.816;2022-09-17T12:26:42;15.70;99.90
22765;DHT22;11549;50.852;3.816;2022-09-17T12:29:27;16.10;99.90
22765;DHT22;11549;50.852;3.816;2022-09-17T12:32:01;16.20;99.90
22765;DHT22;11549;50.852;3.816;2022-09-17T12:34:41;16.20;99.90
22765;DHT22;11549;50.852;3.816;2022-09-17T12:37:18;16.10;99.90
22765;DHT22;11549;50.852;3.816;2022-09-17T12:40:01;16.10;99.90
22765;DHT22;11549;50.852;3.816;2022-09-17T12:42:51;16.00;99.90
22765;DHT22;11549;50.852;3.816;2022-09-17T12:45:31;15.90;99.90
22765;DHT22;11549;50.852;3.816;2022-09-17T12:51:25;15.70;99.90
22765;DHT22;11549;50.852;3.816;2022-09-17T12:54:06;15.90;99.90
22765;DHT22;11549;50.852;3.816;2022-09-17T12:56:48;16.30;99.90
22765;DHT22;11549;50.852;3.816;2022-09-17T12:59:25;16.70;99.90
22765;DHT22;11549;50.852;3.816;2022-09-17T13:01:59;16.90;99.90
22765;DHT22;11549;50.852;3.816;2022-09-17T13:04:58;17.10;99.90
22765;DHT22;11549;50.852;3.816;2022-09-17T13:10:46;17.50;99.90
22765;DHT22;11549;50.852;3.816;2022-09-17T13:13:27;17.60;99.90
22765;DHT22;11549;50.852;3.816;2022-09-17T13:16:07;17.70;99.90
22765;DHT22;11549;50.852;3.816;2022-09-17T13:18:47;17.80;99.90
22765;DHT22;11549;50.852;3.816;2022-09-17T13:21:44;17.80;99.90
22765;DHT22;11549;50.852;3.816;2022-09-17T13:24:16;18.00;99.90
22765;DHT22;11549;50.852;3.816;2022-09-17T13:26:45;18.00;99.90
22765;DHT22;11549;50.852;3.816;2022-09-17T13:29:56;18.30;99.90
22765;DHT22;11549;50.852;3.816;2022-09-17T13:32:51;18.00;99.90
22765;DHT22;11549;50.852;3.816;2022-09-17T13:35:45;17.70;99.90
22765;DHT22;11549;50.852;3.816;2022-09-17T13:38:13;17.20;99.90
22765;DHT22;11549;50.852;3.816;2022-09-17T13:40:49;16.50;99.90
22765;DHT22;11549;50.852;3.816;2022-09-17T13:43:20;15.90;99.90
22765;DHT22;11549;50.852;3.816;2022-09-17T13:46:10;15.70;99.90
22765;DHT22;11549;50.852;3.816;2022-09-17T13:48:54;16.00;99.90
22765;DHT22;11549;50.852;3.816;2022-09-17T13:51:45;16.30;99.90
22765;DHT22;11549;50.852;3.816;2022-09-17T13:54:16;16.50;99.90
22765;DHT22;11549;50.852;3.816;2022-09-17T13:56:49;16.70;99.90
22765;DHT22;11549;50.852;3.816;2022-09-17T13:59:20;16.80;99.90
22765;DHT22;11549;50.852;3.816;2022-09-17T14:02:02;16.80;99.90
22765;DHT22;11549;50.852;3.816;2022-09-17T14:04:45;16.80;99.90
22765;DHT22;11549;50.852;3.816;2022-09-17T14:07:32;17.00;99.90
22765;DHT22;11549;50.852;3.816;2022-09-17T14:10:33;17.00;99.90
22765;DHT22;11549;50.852;3.816;2022-09-17T14:16:32;17.50;99.90
22765;DHT22;11549;50.852;3.816;2022-09-17T14:19:29;17.40;99.90
22765;DHT22;11549;50.852;3.816;2022-09-17T14:22:02;17.10;99.90
22765;DHT22;11549;50.852;3.816;2022-09-17T14:24:38;16.80;99.90
22765;DHT22;11549;50.852;3.816;2022-09-17T14:30:17;16.20;99.90
22765;DHT22;11549;50.852;3.816;2022-09-17T14:32:57;16.20;99.90
22765;DHT22;11549;50.852;3.816;2022-09-17T14:35:33;16.30;99.90
22765;DHT22;11549;50.852;3.816;2022-09-17T14:38:06;16.40;99.90
22765;DHT22;11549;50.852;3.816;2022-09-17T14:40:42;16.30;99.90
22765;DHT22;11549;50.852;3.816;2022-09-17T14:43:17;16.30;99.90
22765;DHT22;11549;50.852;3.816;2022-09-17T14:45:48;16.10;99.90
22765;DHT22;11549;50.852;3.816;2022-09-17T14:48:29;15.80;99.90
22765;DHT22;11549;50.852;3.816;2022-09-17T14:51:26;15.20;99.90
22765;DHT22;11549;50.852;3.816;2022-09-17T14:54:17;14.60;99.90
22765;DHT22;11549;50.852;3.816;2022-09-17T14:56:57;14.50;99.90
22765;DHT22;11549;50.852;3.816;2022-09-17T14:59:39;14.40;99.90
22765;DHT22;11549;50.852;3.816;2022-09-17T15:02:34;14.50;99.90
22765;DHT22;11549;50.852;3.816;2022-09-17T15:05:16;14.50;99.90
22765;DHT22;11549;50.852;3.816;2022-09-17T15:07:45;14.50;99.90
22765;DHT22;11549;50.852;3.816;2022-09-17T15:10:17;14.60;99.90
22765;DHT22;11549;50.852;3.816;2022-09-17T15:12:47;14.80;99.90
22765;DHT22;11549;50.852;3.816;2022-09-17T15:15:18;14.80;99.90
22765;DHT22;11549;50.852;3.816;2022-09-17T15:17:47;14.80;99.90
22765;DHT22;11549;50.852;3.816;2022-09-17T15:20:18;14.90;99.90
22765;DHT22;11549;50.852;3.816;2022-09-17T15:22:53;14.80;99.90
22765;DHT22;11549;50.852;3.816;2022-09-17T15:25:28;14.70;99.90
22765;DHT22;11549;50.852;3.816;2022-09-17T15:28:02;14.60;99.90
22765;DHT22;11549;50.852;3.816;2022-09-17T15:30:32;14.50;99.90
22765;DHT22;11549;50.852;3.816;2022-09-17T15:33:00;14.60;99.90
22765;DHT22;11549;50.852;3.816;2022-09-17T15:35:30;14.70;99.90
22765;DHT22;11549;50.852;3.816;2022-09-17T15:37:59;14.80;99.90
22765;DHT22;11549;50.852;3.816;2022-09-17T15:40:50;14.90;99.90
22765;DHT22;11549;50.852;3.816;2022-09-17T15:43:25;15.00;99.90
22765;DHT22;11549;50.852;3.816;2022-09-17T15:45:55;15.10;99.90
22765;DHT22;11549;50.852;3.816;2022-09-17T15:48:34;15.00;99.90
22765;DHT22;11549;50.852;3.816;2022-09-17T15:51:11;15.00;99.90
22765;DHT22;11549;50.852;3.816;2022-09-17T15:53:50;14.80;99.90
22765;DHT22;11549;50.852;3.816;2022-09-17T15:56:22;14.50;99.90
22765;DHT22;11549;50.852;3.816;2022-09-17T15:58:59;14.30;99.90
22765;DHT22;11549;50.852;3.816;2022-09-17T16:01:50;14.00;99.90
22765;DHT22;11549;50.852;3.816;2022-09-17T16:04:27;13.80;99.90
22765;DHT22;11549;50.852;3.816;2022-09-17T16:07:02;13.60;99.90
22765;DHT22;11549;50.852;3.816;2022-09-17T16:09:46;13.40;99.90
22765;DHT22;11549;50.852;3.816;2022-09-17T16:12:20;13.30;99.90
22765;DHT22;11549;50.852;3.816;2022-09-17T16:14:50;13.20;99.90
22765;DHT22;11549;50.852;3.816;2022-09-17T16:17:25;13.10;99.90
22765;DHT22;11549;50.852;3.816;2022-09-17T16:19:55;13.20;99.90
22765;DHT22;11549;50.852;3.816;2022-09-17T16:22:28;13.20;99.90
22765;DHT22;11549;50.852;3.816;2022-09-17T16:24:57;13.30;99.90
22765;DHT22;11549;50.852;3.816;2022-09-17T16:27:30;13.30;99.90
22765;DHT22;11549;50.852;3.816;2022-09-17T16:30:00;13.40;99.90
22765;DHT22;11549;50.852;3.816;2022-09-17T16:32:29;13.50;99.90
22765;DHT22;11549;50.852;3.816;2022-09-17T16:34:57;13.60;99.90
22765;DHT22;11549;50.852;3.816;2022-09-17T16:37:25;13.80;99.90
22765;DHT22;11549;50.852;3.816;2022-09-17T16:39:54;13.90;99.90